createdAt,value
2022-08-03T00:00:31.914Z,14.92
2022-08-03T00:01:32.798Z,14.91
2022-08-03T00:02:33.714Z,14.86
2022-08-03T00:03:34.566Z,14.84
2022-08-03T00:04:35.447Z,14.83
2022-08-03T00:05:36.329Z,14.83
2022-08-03T00:06:37.455Z,14.81
2022-08-03T00:07:37.766Z,14.78
2022-08-03T00:08:40.373Z,14.73
2022-08-03T00:09:39.270Z,14.69
2022-08-03T00:10:40.152Z,14.60
2022-08-03T00:11:41.040Z,14.58
2022-08-03T00:12:41.909Z,14.52
2022-08-03T00:13:42.793Z,14.54
2022-08-03T00:14:43.674Z,14.52
2022-08-03T00:15:44.486Z,14.51
2022-08-03T00:16:45.370Z,14.47
2022-08-03T00:17:52.375Z,14.47
2022-08-03T00:18:48.020Z,14.46
2022-08-03T00:19:47.912Z,14.47
2022-08-03T00:20:48.786Z,14.47
2022-08-03T00:21:49.674Z,14.47
2022-08-03T00:22:50.541Z,14.50
2022-08-03T00:23:52.962Z,14.51
2022-08-03T00:24:52.342Z,14.52
2022-08-03T00:25:53.231Z,14.51
2022-08-03T00:26:54.137Z,14.55
2022-08-03T00:27:55.037Z,14.55
2022-08-03T00:28:55.785Z,14.58
2022-08-03T00:29:59.547Z,14.60
2022-08-03T00:30:57.218Z,14.61
2022-08-03T00:32:00.206Z,14.61
2022-08-03T00:32:58.864Z,14.62
2022-08-03T00:34:03.519Z,14.65
2022-08-03T00:35:00.503Z,14.68
2022-08-03T00:36:02.268Z,14.69
2022-08-03T00:37:02.142Z,14.70
2022-08-03T00:38:03.024Z,14.70
2022-08-03T00:39:03.897Z,14.70
2022-08-03T00:40:04.790Z,14.70
2022-08-03T00:41:05.405Z,14.68
2022-08-03T00:42:06.285Z,14.69
2022-08-03T00:43:07.181Z,14.68
2022-08-03T00:44:08.079Z,14.65
2022-08-03T00:45:08.984Z,14.62
2022-08-03T00:46:09.885Z,14.58
2022-08-03T00:47:10.760Z,14.52
2022-08-03T00:48:30.139Z,14.47
2022-08-03T00:49:13.492Z,14.42
2022-08-03T00:50:13.356Z,14.36
2022-08-03T00:51:14.228Z,14.35
2022-08-03T00:52:15.109Z,14.33
2022-08-03T00:53:15.985Z,14.25
2022-08-03T00:54:16.777Z,14.22
2022-08-03T00:55:17.672Z,14.21
2022-08-03T00:56:18.551Z,14.17
2022-08-03T00:57:19.424Z,14.12
2022-08-03T00:58:20.308Z,14.10
2022-08-03T00:59:21.192Z,14.09
2022-08-03T01:00:22.856Z,14.09
2022-08-03T01:01:22.776Z,14.07
2022-08-03T01:02:23.649Z,14.06
2022-08-03T01:03:24.537Z,14.04
2022-08-03T01:04:25.431Z,14.03
2022-08-03T01:05:26.347Z,14.02
2022-08-03T01:06:27.233Z,14.02
2022-08-03T01:07:28.112Z,14.02
2022-08-03T01:08:29.004Z,14.00
2022-08-03T01:09:29.867Z,13.97
2022-08-03T01:10:31.010Z,13.95
2022-08-03T01:11:31.431Z,13.96
2022-08-03T01:12:32.312Z,13.92
2022-08-03T01:14:01.391Z,13.91
2022-08-03T01:14:34.965Z,13.91
2022-08-03T01:15:34.846Z,13.91
2022-08-03T01:16:37.056Z,13.91
2022-08-03T01:17:36.552Z,13.92
2022-08-03T01:18:37.434Z,13.92
2022-08-03T01:19:38.319Z,13.96
2022-08-03T01:20:39.211Z,13.96
2022-08-03T01:21:40.084Z,13.99
2022-08-03T01:22:40.973Z,13.97
2022-08-03T01:23:41.851Z,13.96
2022-08-03T01:24:42.746Z,13.95
2022-08-03T01:25:43.647Z,13.95
2022-08-03T01:26:44.529Z,13.95
2022-08-03T01:27:45.409Z,13.96
2022-08-03T01:28:46.283Z,13.96
2022-08-03T01:29:47.167Z,13.96
2022-08-03T01:30:48.047Z,13.96
2022-08-03T01:32:58.042Z,13.92
2022-08-03T01:32:58.207Z,13.97
2022-08-03T01:33:51.471Z,13.92
2022-08-03T01:34:51.344Z,13.91
2022-08-03T01:35:52.243Z,13.89
2022-08-03T01:36:53.114Z,13.87
2022-08-03T01:37:53.996Z,13.82
2022-08-03T01:38:54.882Z,13.81
2022-08-03T01:39:55.763Z,13.77
2022-08-03T01:40:56.747Z,13.73
2022-08-03T01:41:57.626Z,13.71
2022-08-03T01:42:58.508Z,13.69
2022-08-03T01:44:30.250Z,13.67
2022-08-03T01:45:01.160Z,13.64
2022-08-03T01:46:01.065Z,13.64
2022-08-03T01:47:01.941Z,13.63
2022-08-03T01:48:02.847Z,13.63
2022-08-03T01:49:09.236Z,13.60
2022-08-03T01:50:05.482Z,13.60
2022-08-03T01:51:05.385Z,13.57
2022-08-03T01:52:06.268Z,13.54
2022-08-03T01:53:07.139Z,13.54
2022-08-03T01:54:08.021Z,13.54
2022-08-03T01:55:08.895Z,13.55
2022-08-03T01:56:09.788Z,13.57
2022-08-03T01:57:10.671Z,13.55
2022-08-03T01:58:11.542Z,13.57
2022-08-03T01:59:12.425Z,13.57
2022-08-03T02:00:13.306Z,13.59
2022-08-03T02:01:14.219Z,13.59
2022-08-03T02:02:32.955Z,13.55
2022-08-03T02:03:16.855Z,13.54
2022-08-03T02:04:16.734Z,13.55
2022-08-03T02:05:17.607Z,13.49
2022-08-03T02:07:00.843Z,13.48
2022-08-03T02:07:20.278Z,13.46
2022-08-03T02:08:20.171Z,13.44
2022-08-03T02:09:21.064Z,13.44
2022-08-03T02:10:35.378Z,13.44
2022-08-03T02:11:23.720Z,13.44
2022-08-03T02:12:23.601Z,13.42
2022-08-03T02:13:24.474Z,13.42
2022-08-03T02:14:25.357Z,13.39
2022-08-03T02:15:26.242Z,13.39
2022-08-03T02:16:27.135Z,13.39
2022-08-03T02:17:38.710Z,13.32
2022-08-03T02:18:29.784Z,13.32
2022-08-03T02:19:35.241Z,13.29
2022-08-03T02:20:31.432Z,13.25
2022-08-03T02:21:56.448Z,13.20
2022-08-03T02:22:33.094Z,13.17
2022-08-03T02:23:32.976Z,13.15
2022-08-03T02:24:33.478Z,13.12
2022-08-03T02:25:34.362Z,13.10
2022-08-03T02:26:35.254Z,13.08
2022-08-03T02:27:38.423Z,13.07
2022-08-03T02:28:37.907Z,13.03
2022-08-03T02:29:39.103Z,13.01
2022-08-03T02:30:38.610Z,13.00
2022-08-03T02:31:39.483Z,13.01
2022-08-03T02:32:40.372Z,13.00
2022-08-03T02:33:41.263Z,13.00
2022-08-03T02:34:42.157Z,13.01
2022-08-03T02:35:43.016Z,13.03
2022-08-03T02:36:43.914Z,13.04
2022-08-03T02:37:45.025Z,13.05
2022-08-03T02:38:45.314Z,13.05
2022-08-03T02:39:46.198Z,13.08
2022-08-03T02:40:47.080Z,13.11
2022-08-03T02:41:47.976Z,13.12
2022-08-03T02:42:48.861Z,13.10
2022-08-03T02:44:06.696Z,13.08
2022-08-03T02:44:51.512Z,13.08
2022-08-03T02:45:51.394Z,13.08
2022-08-03T02:46:52.290Z,13.10
2022-08-03T02:47:54.870Z,13.11
2022-08-03T02:48:53.828Z,13.10
2022-08-03T02:49:54.724Z,13.12
2022-08-03T02:50:55.569Z,13.12
2022-08-03T02:51:56.199Z,13.14
2022-08-03T02:52:57.082Z,13.12
2022-08-03T02:53:57.960Z,13.15
2022-08-03T02:54:58.837Z,13.12
2022-08-03T02:55:59.722Z,13.14
2022-08-03T02:57:00.618Z,13.11
2022-08-03T02:58:01.822Z,13.11
2022-08-03T02:59:02.132Z,13.05
2022-08-03T03:00:03.018Z,13.03
2022-08-03T03:01:03.986Z,13.03
2022-08-03T03:02:04.843Z,13.03
2022-08-03T03:03:05.726Z,13.01
2022-08-03T03:04:06.471Z,13.01
2022-08-03T03:05:52.107Z,13.03
2022-08-03T03:06:09.050Z,13.01
2022-08-03T03:07:08.943Z,13.00
2022-08-03T03:08:17.905Z,13.00
2022-08-03T03:09:11.393Z,13.00
2022-08-03T03:10:11.276Z,12.97
2022-08-03T03:11:12.162Z,12.97
2022-08-03T03:12:13.285Z,12.97
2022-08-03T03:13:13.726Z,12.95
2022-08-03T03:14:14.611Z,12.92
2022-08-03T03:15:15.488Z,12.86
2022-08-03T03:16:16.363Z,12.89
2022-08-03T03:17:17.259Z,12.86
2022-08-03T03:18:22.278Z,12.87
2022-08-03T03:19:18.985Z,12.86
2022-08-03T03:20:29.155Z,12.89
2022-08-03T03:21:21.633Z,12.87
2022-08-03T03:22:21.528Z,12.87
2022-08-03T03:23:22.412Z,12.86
2022-08-03T03:24:23.284Z,12.85
2022-08-03T03:25:24.167Z,12.79
2022-08-03T03:26:25.052Z,12.79
2022-08-03T03:27:25.941Z,12.82
2022-08-03T03:28:26.503Z,12.79
2022-08-03T03:29:27.393Z,12.79
2022-08-03T03:30:28.270Z,12.79
2022-08-03T03:31:29.155Z,12.79
2022-08-03T03:32:30.045Z,12.78
2022-08-03T03:33:30.930Z,12.77
2022-08-03T03:34:31.756Z,12.77
2022-08-03T03:35:38.891Z,12.75
2022-08-03T03:36:34.538Z,12.72
2022-08-03T03:37:34.389Z,12.70
2022-08-03T03:38:35.220Z,12.65
2022-08-03T03:39:36.100Z,12.62
2022-08-03T03:40:36.984Z,12.62
2022-08-03T03:41:37.870Z,12.62
2022-08-03T03:42:38.764Z,12.59
2022-08-03T03:43:39.600Z,12.59
2022-08-03T03:44:40.483Z,12.56
2022-08-03T03:45:41.367Z,12.54
2022-08-03T03:46:42.198Z,12.52
2022-08-03T03:47:43.034Z,12.53
2022-08-03T03:48:43.870Z,12.53
2022-08-03T03:49:44.697Z,12.53
2022-08-03T03:50:45.518Z,12.53
2022-08-03T03:51:46.364Z,12.54
2022-08-03T03:52:47.211Z,12.53
2022-08-03T03:53:48.036Z,12.56
2022-08-03T03:54:48.863Z,12.57
2022-08-03T03:55:59.333Z,12.56
2022-08-03T03:56:51.407Z,12.57
2022-08-03T03:57:51.247Z,12.57
2022-08-03T03:58:52.073Z,12.59
2022-08-03T03:59:52.921Z,12.60
2022-08-03T04:00:53.979Z,12.60
2022-08-03T04:01:59.307Z,12.60
2022-08-03T04:02:56.113Z,12.59
2022-08-03T04:03:55.937Z,12.59
2022-08-03T04:04:56.759Z,12.59
2022-08-03T04:05:57.599Z,12.56
2022-08-03T04:06:58.431Z,12.54
2022-08-03T04:07:59.268Z,12.53
2022-08-03T04:09:00.085Z,12.50
2022-08-03T04:10:00.954Z,12.50
2022-08-03T04:11:02.627Z,12.47
2022-08-03T04:12:02.454Z,12.47
2022-08-03T04:13:03.294Z,12.49
2022-08-03T04:14:04.123Z,12.45
2022-08-03T04:15:04.945Z,12.46
2022-08-03T04:16:05.773Z,12.45
2022-08-03T04:17:06.595Z,12.47
2022-08-03T04:18:07.432Z,12.47
2022-08-03T04:19:08.263Z,12.45
2022-08-03T04:20:09.091Z,12.45
2022-08-03T04:21:09.920Z,12.42
2022-08-03T04:22:10.785Z,12.42
2022-08-03T04:23:12.840Z,12.38
2022-08-03T04:24:12.485Z,12.35
2022-08-03T04:25:13.303Z,12.35
2022-08-03T04:26:14.131Z,12.35
2022-08-03T04:27:14.964Z,12.34
2022-08-03T04:28:29.452Z,12.32
2022-08-03T04:29:17.513Z,12.32
2022-08-03T04:30:17.342Z,12.29
2022-08-03T04:31:18.170Z,12.28
2022-08-03T04:32:19.232Z,12.28
2022-08-03T04:33:19.578Z,12.27
2022-08-03T04:34:20.407Z,12.28
2022-08-03T04:35:21.237Z,12.27
2022-08-03T04:36:22.950Z,12.28
2022-08-03T04:37:22.775Z,12.28
2022-08-03T04:38:23.623Z,12.28
2022-08-03T04:39:24.450Z,12.29
2022-08-03T04:40:25.278Z,12.28
2022-08-03T04:41:26.060Z,12.27
2022-08-03T04:42:26.887Z,12.28
2022-08-03T04:43:27.715Z,12.28
2022-08-03T04:44:28.825Z,12.29
2022-08-03T04:45:29.194Z,12.31
2022-08-03T04:46:30.023Z,12.31
2022-08-03T04:47:30.840Z,12.32
2022-08-03T04:48:31.682Z,12.34
2022-08-03T04:49:32.629Z,12.38
2022-08-03T04:50:33.438Z,12.38
2022-08-03T04:51:34.266Z,12.39
2022-08-03T04:52:35.095Z,12.42
2022-08-03T04:53:35.738Z,12.42
2022-08-03T04:54:36.565Z,12.46
2022-08-03T04:55:37.407Z,12.45
2022-08-03T04:56:38.222Z,12.46
2022-08-03T04:57:39.046Z,12.46
2022-08-03T04:58:39.880Z,12.45
2022-08-03T04:59:40.937Z,12.39
2022-08-03T05:00:41.259Z,12.39
2022-08-03T05:01:42.233Z,12.39
2022-08-03T05:02:43.049Z,12.38
2022-08-03T05:03:43.874Z,12.37
2022-08-03T05:04:44.704Z,12.38
2022-08-03T05:05:50.275Z,12.35
2022-08-03T05:06:48.252Z,12.35
2022-08-03T05:07:46.757Z,12.34
2022-08-03T05:08:48.896Z,12.34
2022-08-03T05:09:52.229Z,12.34
2022-08-03T05:10:48.693Z,12.32
2022-08-03T05:11:49.512Z,12.32
2022-08-03T05:12:50.340Z,12.32
2022-08-03T05:13:51.170Z,12.32
2022-08-03T05:14:52.003Z,12.35
2022-08-03T05:15:52.828Z,12.35
2022-08-03T05:16:53.651Z,12.35
2022-08-03T05:17:54.472Z,12.37
2022-08-03T05:18:55.310Z,12.38
2022-08-03T05:19:56.128Z,12.39
2022-08-03T05:20:56.957Z,12.38
2022-08-03T05:21:57.777Z,12.39
2022-08-03T05:22:58.607Z,12.45
2022-08-03T05:23:59.444Z,12.42
2022-08-03T05:25:00.296Z,12.45
2022-08-03T05:26:01.103Z,12.46
2022-08-03T05:27:01.931Z,12.52
2022-08-03T05:28:02.761Z,12.53
2022-08-03T05:29:03.599Z,12.56
2022-08-03T05:30:30.993Z,12.56
2022-08-03T05:31:06.134Z,12.59
2022-08-03T05:32:08.283Z,12.57
2022-08-03T05:33:06.761Z,12.57
2022-08-03T05:34:07.591Z,12.59
2022-08-03T05:35:56.096Z,12.59
2022-08-03T05:36:10.135Z,12.57
2022-08-03T05:37:09.961Z,12.57
2022-08-03T05:38:10.784Z,12.62
2022-08-03T05:39:11.619Z,12.64
2022-08-03T05:40:12.442Z,12.64
2022-08-03T05:41:22.259Z,12.68
2022-08-03T05:42:15.236Z,12.70
2022-08-03T05:43:14.604Z,12.72
2022-08-03T05:44:15.432Z,12.75
2022-08-03T05:45:16.264Z,12.79
2022-08-03T05:46:17.094Z,12.83
2022-08-03T05:47:17.922Z,12.87
2022-08-03T05:48:18.720Z,12.90
2022-08-03T05:49:19.611Z,12.96
2022-08-03T05:50:20.408Z,13.03
2022-08-03T05:51:21.237Z,13.10
2022-08-03T05:52:22.196Z,13.19
2022-08-03T05:53:22.666Z,13.23
2022-08-03T05:54:23.505Z,13.29
2022-08-03T05:55:25.220Z,13.33
2022-08-03T05:56:25.049Z,13.39
2022-08-03T05:57:25.869Z,13.44
2022-08-03T05:58:26.697Z,13.51
2022-08-03T05:59:37.898Z,13.57
2022-08-03T06:00:28.983Z,13.63
2022-08-03T06:01:28.852Z,13.67
2022-08-03T06:02:29.629Z,13.71
2022-08-03T06:03:30.449Z,13.78
2022-08-03T06:04:31.310Z,13.88
2022-08-03T06:05:32.132Z,13.95
2022-08-03T06:06:32.961Z,14.02
2022-08-03T06:07:33.790Z,14.07
2022-08-03T06:08:34.613Z,14.14
2022-08-03T06:10:35.525Z,14.18
2022-08-03T06:10:38.345Z,14.25
2022-08-03T06:11:36.785Z,14.28
2022-08-03T06:12:37.609Z,14.33
2022-08-03T06:13:38.429Z,14.37
2022-08-03T06:14:39.266Z,14.42
2022-08-03T06:15:40.087Z,14.47
2022-08-03T06:16:40.921Z,14.52
2022-08-03T06:17:41.752Z,14.55
2022-08-03T06:18:42.604Z,14.61
2022-08-03T06:19:43.445Z,14.65
2022-08-03T06:20:44.281Z,14.68
2022-08-03T06:21:45.096Z,14.72
2022-08-03T06:22:51.006Z,14.77
2022-08-03T06:23:54.211Z,14.81
2022-08-03T06:24:53.796Z,14.88
2022-08-03T06:25:49.092Z,14.89
2022-08-03T06:26:48.918Z,14.92
2022-08-03T06:27:49.739Z,14.95
2022-08-03T06:28:52.482Z,15.02
2022-08-03T06:29:51.127Z,15.06
2022-08-03T06:30:51.969Z,15.10
2022-08-03T06:31:52.789Z,15.14
2022-08-03T06:32:53.626Z,15.17
2022-08-03T06:34:32.917Z,15.23
2022-08-03T06:34:56.177Z,15.25
2022-08-03T06:35:55.997Z,15.31
2022-08-03T06:37:01.678Z,15.35
2022-08-03T06:37:58.537Z,15.41
2022-08-03T06:38:58.155Z,15.47
2022-08-03T06:39:58.977Z,15.50
2022-08-03T06:40:59.809Z,15.56
2022-08-03T06:42:00.650Z,15.62
2022-08-03T06:43:01.465Z,15.65
2022-08-03T06:44:02.945Z,15.71
2022-08-03T06:45:03.119Z,15.78
2022-08-03T06:46:03.938Z,15.82
2022-08-03T06:47:04.766Z,15.84
2022-08-03T06:48:05.584Z,15.89
2022-08-03T06:49:06.513Z,15.92
2022-08-03T06:50:16.278Z,15.96
2022-08-03T06:51:09.017Z,16.00
2022-08-03T06:52:08.834Z,16.02
2022-08-03T06:53:09.664Z,16.07
2022-08-03T06:54:11.396Z,16.11
2022-08-03T06:55:11.225Z,16.14
2022-08-03T06:56:12.053Z,16.20
2022-08-03T06:57:12.881Z,16.20
2022-08-03T06:58:13.711Z,16.23
2022-08-03T07:00:09.848Z,16.25
2022-08-03T07:00:16.271Z,16.31
2022-08-03T07:01:18.498Z,16.35
2022-08-03T07:02:19.391Z,16.41
2022-08-03T07:03:17.424Z,16.46
2022-08-03T07:04:18.269Z,16.52
2022-08-03T07:05:19.100Z,16.56
2022-08-03T07:06:19.925Z,16.63
2022-08-03T07:07:20.835Z,16.67
2022-08-03T07:08:33.840Z,16.71
2022-08-03T07:09:23.318Z,16.79
2022-08-03T07:10:23.150Z,16.83
2022-08-03T07:11:23.988Z,16.88
2022-08-03T07:12:24.817Z,16.93
2022-08-03T07:13:25.644Z,16.98
2022-08-03T07:14:26.495Z,17.04
2022-08-03T07:15:54.450Z,17.11
2022-08-03T07:16:29.045Z,17.16
2022-08-03T07:17:28.867Z,17.23
2022-08-03T07:18:30.230Z,17.34
2022-08-03T07:19:30.507Z,17.51
2022-08-03T07:20:32.694Z,17.66
2022-08-03T07:21:32.013Z,17.86
2022-08-03T07:22:32.837Z,18.07
2022-08-03T07:23:33.663Z,18.32
2022-08-03T07:24:34.503Z,18.57
2022-08-03T07:25:35.332Z,18.85
2022-08-03T07:26:35.993Z,19.13
2022-08-03T07:27:36.766Z,19.43
2022-08-03T07:28:37.584Z,19.74
2022-08-03T07:29:38.421Z,20.01
2022-08-03T07:30:39.252Z,20.26
2022-08-03T07:31:40.083Z,20.50
2022-08-03T07:32:49.778Z,20.73
2022-08-03T07:33:42.627Z,20.97
2022-08-03T07:34:42.456Z,21.16
2022-08-03T07:35:43.283Z,21.37
2022-08-03T07:36:44.118Z,21.62
2022-08-03T07:37:46.161Z,21.88
2022-08-03T07:38:46.659Z,22.09
2022-08-03T07:39:46.496Z,22.22
2022-08-03T07:40:47.317Z,22.37
2022-08-03T07:41:48.155Z,22.55
2022-08-03T07:42:52.140Z,22.73
2022-08-03T07:43:49.794Z,22.88
2022-08-03T07:44:50.623Z,23.04
2022-08-03T07:45:51.451Z,23.19
2022-08-03T07:46:52.272Z,23.33
2022-08-03T07:47:53.811Z,23.43
2022-08-03T07:48:53.851Z,23.57
2022-08-03T07:49:54.644Z,23.68
2022-08-03T07:50:55.463Z,23.83
2022-08-03T07:51:56.292Z,23.94
2022-08-03T07:52:57.111Z,24.09
2022-08-03T07:53:57.939Z,24.15
2022-08-03T07:54:58.769Z,24.22
2022-08-03T07:55:59.597Z,24.32
2022-08-03T07:57:00.100Z,24.46
2022-08-03T07:58:00.928Z,24.55
2022-08-03T07:59:01.758Z,24.68
2022-08-03T08:00:02.909Z,24.80
2022-08-03T08:01:03.454Z,24.91
2022-08-03T08:02:04.264Z,24.95
2022-08-03T08:03:05.082Z,24.99
2022-08-03T08:04:05.916Z,25.03
2022-08-03T08:05:06.748Z,25.10
2022-08-03T08:06:07.578Z,25.20
2022-08-03T08:07:08.394Z,25.30
2022-08-03T08:08:08.903Z,25.40
2022-08-03T08:09:09.729Z,25.52
2022-08-03T08:10:10.569Z,25.65
2022-08-03T08:11:11.386Z,25.75
2022-08-03T08:12:15.748Z,25.79
2022-08-03T08:13:12.887Z,25.75
2022-08-03T08:14:13.714Z,25.69
2022-08-03T08:15:14.553Z,25.60
2022-08-03T08:16:15.382Z,25.51
2022-08-03T08:17:16.212Z,25.43
2022-08-03T08:18:17.043Z,25.39
2022-08-03T08:19:17.870Z,25.38
2022-08-03T08:20:27.649Z,25.36
2022-08-03T08:21:20.492Z,25.36
2022-08-03T08:22:29.947Z,25.33
2022-08-03T08:23:42.670Z,25.33
2022-08-03T08:24:22.699Z,25.33
2022-08-03T08:25:22.450Z,25.33
2022-08-03T08:26:23.277Z,25.33
2022-08-03T08:27:24.096Z,25.36
2022-08-03T08:28:32.682Z,25.35
2022-08-03T08:29:26.641Z,25.38
2022-08-03T08:30:26.477Z,25.39
2022-08-03T08:31:27.014Z,25.39
2022-08-03T08:32:27.836Z,25.39
2022-08-03T08:33:37.620Z,25.40
2022-08-03T08:34:30.416Z,25.39
2022-08-03T08:35:30.179Z,25.42
2022-08-03T08:36:31.056Z,25.42
2022-08-03T08:37:31.844Z,25.42
2022-08-03T08:38:32.670Z,25.39
2022-08-03T08:39:33.490Z,25.40
2022-08-03T08:40:34.330Z,25.40
2022-08-03T08:41:35.157Z,25.39
2022-08-03T08:42:36.009Z,25.39
2022-08-03T08:43:36.816Z,25.40
2022-08-03T08:44:37.646Z,25.42
2022-08-03T08:45:38.475Z,25.45
2022-08-03T08:46:39.303Z,25.46
2022-08-03T08:47:50.933Z,25.47
2022-08-03T08:48:41.842Z,25.50
2022-08-03T08:49:53.426Z,25.51
2022-08-03T08:50:43.389Z,25.52
2022-08-03T08:51:50.953Z,25.54
2022-08-03T08:52:44.923Z,25.54
2022-08-03T08:53:44.751Z,25.57
2022-08-03T08:54:45.580Z,25.55
2022-08-03T08:55:58.390Z,25.60
2022-08-03T08:56:48.136Z,25.60
2022-08-03T08:57:47.953Z,25.58
2022-08-03T08:58:48.782Z,25.58
2022-08-03T08:59:51.587Z,25.60
2022-08-03T09:00:51.388Z,25.58
2022-08-03T09:01:51.191Z,25.60
2022-08-03T09:02:52.013Z,25.60
2022-08-03T09:03:52.835Z,25.60
2022-08-03T09:04:53.670Z,25.62
2022-08-03T09:05:56.056Z,25.62
2022-08-03T09:07:17.992Z,25.62
2022-08-03T09:07:56.839Z,25.65
2022-08-03T09:08:56.687Z,25.65
2022-08-03T09:10:12.312Z,25.64
2022-08-03T09:10:59.247Z,25.60
2022-08-03T09:12:20.025Z,25.60
2022-08-03T09:13:00.772Z,25.55
2022-08-03T09:14:00.592Z,25.52
2022-08-03T09:15:16.482Z,25.51
2022-08-03T09:16:03.157Z,25.50
2022-08-03T09:17:02.988Z,25.51
2022-08-03T09:18:03.807Z,25.47
2022-08-03T09:19:04.635Z,25.47
2022-08-03T09:20:05.486Z,25.51
2022-08-03T09:21:24.201Z,25.47
2022-08-03T09:22:08.027Z,25.50
2022-08-03T09:23:24.994Z,25.50
2022-08-03T09:24:16.691Z,25.47
2022-08-03T09:25:23.754Z,25.50
2022-08-03T09:26:11.034Z,25.51
2022-08-03T09:27:10.864Z,25.52
2022-08-03T09:28:11.687Z,25.51
2022-08-03T09:29:15.262Z,25.52
2022-08-03T09:30:33.901Z,25.54
2022-08-03T09:31:15.020Z,25.54
2022-08-03T09:32:14.992Z,25.54
2022-08-03T09:33:15.748Z,25.54
2022-08-03T09:34:16.750Z,25.55
2022-08-03T09:35:27.890Z,25.58
2022-08-03T09:36:18.834Z,25.60
2022-08-03T09:37:19.049Z,25.64
2022-08-03T09:38:19.492Z,25.69
2022-08-03T09:39:40.923Z,25.72
2022-08-03T09:40:22.062Z,25.73
2022-08-03T09:41:21.892Z,25.76
2022-08-03T09:42:23.992Z,25.79
2022-08-03T09:43:23.396Z,25.83
2022-08-03T09:44:25.986Z,25.85
2022-08-03T09:45:24.982Z,25.85
2022-08-03T09:46:25.811Z,25.90
2022-08-03T09:47:28.289Z,25.94
2022-08-03T09:48:27.223Z,25.97
2022-08-03T09:49:28.120Z,26.02
2022-08-03T09:50:28.918Z,26.02
2022-08-03T09:51:33.179Z,26.06
2022-08-03T09:52:49.818Z,26.06
2022-08-03T09:53:32.176Z,26.02
2022-08-03T09:54:31.995Z,26.01
2022-08-03T09:56:35.605Z,25.99
2022-08-03T09:56:37.147Z,25.98
2022-08-03T09:57:34.492Z,26.01
2022-08-03T09:58:35.320Z,25.99
2022-08-03T09:59:36.150Z,26.05
2022-08-03T10:00:36.918Z,26.05
2022-08-03T10:01:37.754Z,26.05
2022-08-03T10:02:38.530Z,26.07
2022-08-03T10:04:03.138Z,26.07
2022-08-03T10:04:41.074Z,26.10
2022-08-03T10:05:40.919Z,26.13
2022-08-03T10:06:41.749Z,26.17
2022-08-03T10:07:46.191Z,26.18
2022-08-03T10:08:43.104Z,26.20
2022-08-03T10:09:43.924Z,26.20
2022-08-03T10:10:44.775Z,26.20
2022-08-03T10:11:45.609Z,26.21
2022-08-03T10:12:46.439Z,26.21
2022-08-03T10:13:47.254Z,26.21
2022-08-03T10:14:48.087Z,26.23
2022-08-03T10:16:23.717Z,26.25
2022-08-03T10:16:50.627Z,26.25
2022-08-03T10:17:50.447Z,26.25
2022-08-03T10:18:51.275Z,26.23
2022-08-03T10:19:52.094Z,26.23
2022-08-03T10:20:53.047Z,26.23
2022-08-03T10:21:53.444Z,26.20
2022-08-03T10:22:54.272Z,26.18
2022-08-03T10:23:55.106Z,26.20
2022-08-03T10:24:55.931Z,26.20
2022-08-03T10:25:56.764Z,26.20
2022-08-03T10:26:57.597Z,26.18
2022-08-03T10:27:58.411Z,26.18
2022-08-03T10:28:59.241Z,26.15
2022-08-03T10:30:00.063Z,26.15
2022-08-03T10:31:00.898Z,26.15
2022-08-03T10:32:01.719Z,26.17
2022-08-03T10:33:02.546Z,26.18
2022-08-03T10:34:03.375Z,26.18
2022-08-03T10:35:19.645Z,26.21
2022-08-03T10:36:05.935Z,26.23
2022-08-03T10:37:05.757Z,26.21
2022-08-03T10:38:06.577Z,26.18
2022-08-03T10:39:16.024Z,26.18
2022-08-03T10:40:09.122Z,26.20
2022-08-03T10:41:08.960Z,26.20
2022-08-03T10:42:14.612Z,26.21
2022-08-03T10:43:11.495Z,26.23
2022-08-03T10:44:11.330Z,26.20
2022-08-03T10:45:12.153Z,26.20
2022-08-03T10:46:12.992Z,26.18
2022-08-03T10:47:13.932Z,26.21
2022-08-03T10:48:14.721Z,26.21
2022-08-03T10:49:15.568Z,26.23
2022-08-03T10:50:16.370Z,26.21
2022-08-03T10:51:17.210Z,26.21
2022-08-03T10:52:31.960Z,26.20
2022-08-03T10:53:20.134Z,26.21
2022-08-03T10:54:19.423Z,26.21
2022-08-03T10:55:20.014Z,26.20
2022-08-03T10:56:35.375Z,26.23
2022-08-03T10:57:22.343Z,26.21
2022-08-03T10:58:30.533Z,26.23
2022-08-03T10:59:28.024Z,26.23
2022-08-03T11:00:23.613Z,26.23
2022-08-03T11:01:24.472Z,26.23
2022-08-03T11:02:26.126Z,26.23
2022-08-03T11:03:25.953Z,26.23
2022-08-03T11:04:26.776Z,26.23
2022-08-03T11:05:27.602Z,26.23
2022-08-03T11:06:28.439Z,26.25
2022-08-03T11:07:30.153Z,26.23
2022-08-03T11:08:29.975Z,26.25
2022-08-03T11:09:30.811Z,26.25
2022-08-03T11:10:31.642Z,26.25
2022-08-03T11:11:32.476Z,26.26
2022-08-03T11:12:33.307Z,26.28
2022-08-03T11:13:34.240Z,26.28
2022-08-03T11:14:34.997Z,26.28
2022-08-03T11:15:35.825Z,26.28
2022-08-03T11:16:36.660Z,26.30
2022-08-03T11:17:46.807Z,26.29
2022-08-03T11:18:39.205Z,26.30
2022-08-03T11:19:39.034Z,26.33
2022-08-03T11:20:40.749Z,26.35
2022-08-03T11:21:40.587Z,26.37
2022-08-03T11:22:41.407Z,26.39
2022-08-03T11:24:03.048Z,26.44
2022-08-03T11:24:43.951Z,26.45
2022-08-03T11:25:53.489Z,26.45
2022-08-03T11:26:45.511Z,26.45
2022-08-03T11:27:45.341Z,26.47
2022-08-03T11:28:46.162Z,26.50
2022-08-03T11:29:46.990Z,26.52
2022-08-03T11:30:47.820Z,26.52
2022-08-03T11:31:50.700Z,26.54
2022-08-03T11:32:49.325Z,26.57
2022-08-03T11:33:50.153Z,26.57
2022-08-03T11:34:50.976Z,26.60
2022-08-03T11:35:51.802Z,26.60
2022-08-03T11:36:52.643Z,26.58
2022-08-03T11:38:02.446Z,26.58
2022-08-03T11:38:55.186Z,26.62
2022-08-03T11:39:55.014Z,26.60
2022-08-03T11:40:55.843Z,26.62
2022-08-03T11:41:56.681Z,26.65
2022-08-03T11:42:57.513Z,26.65
2022-08-03T11:43:58.341Z,26.66
2022-08-03T11:44:58.912Z,26.67
2022-08-03T11:45:59.742Z,26.66
2022-08-03T11:47:00.572Z,26.66
2022-08-03T11:48:01.400Z,26.66
2022-08-03T11:49:05.352Z,26.69
2022-08-03T11:50:03.937Z,26.70
2022-08-03T11:51:03.757Z,26.73
2022-08-03T11:52:04.594Z,26.77
2022-08-03T11:53:05.414Z,26.82
2022-08-03T11:54:06.243Z,26.85
2022-08-03T11:55:07.063Z,26.85
2022-08-03T11:56:12.916Z,26.91
2022-08-03T11:57:09.614Z,26.89
2022-08-03T11:59:02.706Z,26.91
2022-08-03T11:59:20.021Z,26.91
2022-08-03T12:00:11.872Z,26.91
2022-08-03T12:01:11.702Z,26.92
2022-08-03T12:02:12.532Z,26.92
2022-08-03T12:03:13.456Z,26.91
2022-08-03T12:04:14.219Z,26.89
2022-08-03T12:05:15.045Z,26.87
2022-08-03T12:06:15.868Z,26.85
2022-08-03T12:07:24.482Z,26.87
2022-08-03T12:08:18.452Z,26.88
2022-08-03T12:09:18.275Z,26.87
2022-08-03T12:10:19.148Z,26.89
2022-08-03T12:11:19.973Z,26.91
2022-08-03T12:12:20.828Z,26.89
2022-08-03T12:14:44.636Z,26.89
2022-08-03T12:14:48.492Z,26.92
2022-08-03T12:15:23.972Z,26.94
2022-08-03T12:16:23.800Z,26.95
2022-08-03T12:17:24.639Z,27.00
2022-08-03T12:18:25.466Z,27.02
2022-08-03T12:19:26.286Z,27.06
2022-08-03T12:20:34.442Z,27.09
2022-08-03T12:21:28.833Z,27.07
2022-08-03T12:22:28.671Z,27.09
2022-08-03T12:23:29.498Z,27.10
2022-08-03T12:24:30.331Z,27.10
2022-08-03T12:25:39.539Z,27.10
2022-08-03T12:26:32.868Z,27.12
2022-08-03T12:27:32.706Z,27.14
2022-08-03T12:28:37.750Z,27.17
2022-08-03T12:29:34.344Z,27.19
2022-08-03T12:30:35.172Z,27.22
2022-08-03T12:31:35.992Z,27.24
2022-08-03T12:32:36.831Z,27.25
2022-08-03T12:33:37.661Z,27.27
2022-08-03T12:34:40.039Z,27.28
2022-08-03T12:35:39.094Z,27.28
2022-08-03T12:36:40.805Z,27.28
2022-08-03T12:37:40.651Z,27.29
2022-08-03T12:38:41.479Z,27.31
2022-08-03T12:40:01.378Z,27.31
2022-08-03T12:40:44.025Z,27.32
2022-08-03T12:41:43.844Z,27.32
2022-08-03T12:42:44.683Z,27.37
2022-08-03T12:43:45.516Z,27.36
2022-08-03T12:44:46.343Z,27.39
2022-08-03T12:45:47.333Z,27.40
2022-08-03T12:46:48.319Z,27.44
2022-08-03T12:47:49.117Z,27.46
2022-08-03T12:48:49.943Z,27.46
2022-08-03T12:49:50.765Z,27.49
2022-08-03T12:50:53.556Z,27.50
2022-08-03T12:51:52.575Z,27.54
2022-08-03T12:52:53.416Z,27.57
2022-08-03T12:53:54.248Z,27.59
2022-08-03T12:54:55.076Z,27.60
2022-08-03T12:56:05.099Z,27.65
2022-08-03T12:56:57.624Z,27.66
2022-08-03T12:57:57.461Z,27.65
2022-08-03T12:58:58.290Z,27.66
2022-08-03T12:59:59.123Z,27.67
2022-08-03T13:00:59.949Z,27.69
2022-08-03T13:02:01.072Z,27.70
2022-08-03T13:03:26.484Z,27.69